Hub


Voltar

 INFORMAÇÕES METEOROLÓGICAS

METAR FOR KDSM


ADDS - METARS form results

(2225 UTC 24 March 2019)
Data provider http://aviationweather.gov/metar/data/
 
METAR text: KDSM 242212Z 01009KT 3SM BR OVC004 08/07 A3003 RMK AO2 T00830072
Conditions at: KDSM (DES MOINES , IA, US) observed 2212 UTC 24 March 2019
Temperature: 8.3°C (47°F)
Dewpoint: 7.2°C (45°F) [RH = 93%]
Pressure (altimeter): 30.03 inches Hg (1017.0 mb)
Winds: from the N (10 degrees) at 10 MPH (9 knots; 4.6 m/s)
Visibility: 3 miles ( 5 km)
Ceiling: 400 feet AGL
Clouds: overcast cloud deck at 400 feet AGL
Weather: BR  (mist)

METAR text: KDSM 242154Z 02013KT 4SM BR BKN005 OVC009 09/07 A3002 RMK AO2 CIG 005V008 SLP168 T00890072
Conditions at: KDSM (DES MOINES , IA, US) observed 2154 UTC 24 March 2019
Temperature: 8.9°C (48°F)
Dewpoint: 7.2°C (45°F) [RH = 89%]
Pressure (altimeter): 30.02 inches Hg (1016.7 mb)
[Sea-level pressure: 1016.8 mb]
Winds: from the NNE (20 degrees) at 15 MPH (13 knots; 6.7 m/s)
Visibility: 4 miles ( 6 km)
Ceiling: 500 feet AGL
Clouds: broken clouds at 500 feet AGL
overcast cloud deck at 900 feet AGL
Weather: BR  (mist)

METAR text: KDSM 242142Z 02011KT 6SM BR OVC008 09/07 A3001 RMK AO2 CIG 006V011 T00890072
Conditions at: KDSM (DES MOINES , IA, US) observed 2142 UTC 24 March 2019
Temperature: 8.9°C (48°F)
Dewpoint: 7.2°C (45°F) [RH = 89%]
Pressure (altimeter): 30.01 inches Hg (1016.3 mb)
Winds: from the NNE (20 degrees) at 13 MPH (11 knots; 5.7 m/s)
Visibility: 6 miles (10 km)
Ceiling: 800 feet AGL
Clouds: overcast cloud deck at 800 feet AGL
Weather: BR  (mist)

Forecast for: KDSM (DES MOINES , IA, US)
Text: KDSM 242222Z 2422/2518 03008KT 5SM BR OVC008
Forecast period: 2200 UTC 24 March 2019 to 0100 UTC 25 March 2019
Forecast type: FROM: standard forecast or significant change
Winds: from the NNE (30 degrees) at 9 MPH (8 knots; 4.1 m/s)
Visibility: 5 miles (8 km)
Ceiling: 800 feet AGL
Clouds: overcast cloud deck at 800 feet AGL
Weather: BR  (mist)
Text: TEMPO 2422/2501 2SM -RA BR OVC004
Forecast period: 2200 UTC 24 March 2019 to 0100 UTC 25 March 2019
Forecast type: TEMPORARY: The following changes expected for less than half the time period
Visibility: 2.00 miles (3.22 km)
Ceiling: 400 feet AGL
Clouds: overcast cloud deck at 400 feet AGL
Weather: -RA BR  (light rain, mist)
Text: FM250100 03010KT P6SM OVC012
Forecast period: 0100 to 1800 UTC 25 March 2019
Forecast type: FROM: standard forecast or significant change
Winds: from the NNE (30 degrees) at 12 MPH (10 knots; 5.1 m/s)
Visibility: 6 or more miles 10+ km)
Ceiling: 1200 feet AGL
Clouds: overcast cloud deck at 1200 feet AGL
Weather: no significant weather forecast for this period


 MAPA DO AEROPORTO


 INFORMAÇÕES DA PISTA

Pista 05 Tamanho da pista 9003 ft Largura da pista 150 ft
Elevação da pista 916 ft Ranhura da pista 0 ft Proa da pista 54
Pista 23 Tamanho da pista 9003 ft Largura da pista 150 ft
Elevação da pista 935 ft Ranhura da pista 0 ft Proa da pista 234
Pista 13 Tamanho da pista 9001 ft Largura da pista 150 ft
Elevação da pista 912 ft Ranhura da pista 0 ft Proa da pista 132
Pista 31 Tamanho da pista 9001 ft Largura da pista 150 ft
Elevação da pista 958 ft Ranhura da pista 0 ft Proa da pista 312

 FREQUÊNCIAS DO AEROPORTO

Tipo A/D Nome APP/DEP Frequência 118.6 MHZ
Tipo ATIS Nome ATIS Frequência 119.55 MHZ
Tipo CLD Nome CLNC DEL Frequência 134.15 MHZ
Tipo GND Nome GND Frequência 121.9 MHZ
Tipo OPS Nome ANG OPS MA Frequência 138.15 MHZ
Tipo RDO Nome FORT DODGE Frequência 122.65 MHZ
Tipo TWR Nome TWR Frequência 118.3 MHZ
Tipo UNIC Nome UNICOM Frequência 122.95 MHZ

 AUXÍLIOS DE NAVEGAÇÃO PRÓXIMOS AO AEROPORTO

Tipo NDB Nome Forem Frequência 344 KHZ
Tipo VORTAC Nome Des Moines Frequência 117500 KHZ